Little Valley, California
Current Conditions -  °F | °C
As of 11:55 AM on Saturday 20 Dec 2014 (Local Time) from KAAT Reporting Station
Light Rain Light Rain  
Wind Chill: 37°   Ceiling: 3100
Heat Index: 42°   Visibility: 10mi
Dew Point: 37°   Wind: 9mph
Humidity: 82%   Direction: 180°S
Pressure: 30.03"   Gusts: NA
Location:  40.9954°N, 121.135°W
Report Text: KAAT 201955Z AUTO 18008KT 10SM -RA OVC031 06/03 A3003 RMK AO2 SLP171 P0001 T00560028
Loading
Personal Weather Stations






























Interactive Weather Map New forecast layout! Learn more

10-Day Weather Forecast

Advertisements
Track Severe Weather on mobile